createdAt,value
2023-01-11T00:01:12.086Z,3.75
2023-01-11T00:06:14.195Z,3.67
2023-01-11T00:11:17.436Z,2.47
2023-01-11T00:16:19.544Z,2.20
2023-01-11T00:21:22.718Z,2.25
2023-01-11T00:26:24.836Z,1.95
2023-01-11T00:31:26.988Z,2.20
2023-01-11T00:36:29.186Z,1.85
2023-01-11T00:41:49.627Z,1.88
2023-01-11T00:47:10.531Z,2.67
2023-01-11T00:52:12.735Z,3.33
2023-01-11T00:57:14.787Z,2.78
2023-01-11T01:02:16.917Z,2.13
2023-01-11T01:07:19.006Z,2.03
2023-01-11T01:12:39.685Z,2.95
2023-01-11T01:17:41.831Z,2.28
2023-01-11T01:22:44.045Z,2.95
2023-01-11T01:27:46.253Z,1.23
2023-01-11T01:32:48.373Z,2.95
2023-01-11T01:37:50.456Z,1.73
2023-01-11T01:42:55.755Z,3.17
2023-01-11T01:48:06.196Z,3.13
2023-01-11T01:53:16.304Z,1.45
2023-01-11T01:58:23.487Z,1.48
2023-01-11T02:03:27.256Z,2.28
2023-01-11T02:08:43.409Z,1.52
2023-01-11T02:13:46.371Z,1.83
2023-01-11T02:18:48.573Z,1.80
2023-01-11T02:24:10.599Z,3.42
2023-01-11T02:34:32.661Z,2.15
2023-01-11T02:40:07.331Z,2.15
2023-01-11T02:45:31.260Z,2.10
2023-01-11T02:50:54.094Z,2.88
2023-01-11T02:56:00.270Z,2.55
2023-01-11T03:01:03.643Z,1.90
2023-01-11T03:06:11.846Z,2.72
2023-01-11T03:11:56.529Z,1.80
2023-01-11T03:17:22.562Z,2.00
2023-01-11T03:22:45.729Z,1.50
2023-01-11T03:27:53.173Z,2.63
2023-01-11T03:33:01.457Z,2.00
2023-01-11T03:38:20.859Z,1.50
2023-01-11T03:43:25.544Z,1.10
2023-01-11T03:48:40.222Z,2.92
2023-01-11T03:53:46.852Z,1.50
2023-01-11T03:58:49.076Z,1.40
2023-01-11T04:03:51.208Z,1.58
2023-01-11T04:08:53.297Z,1.95
2023-01-11T04:13:55.716Z,1.80
2023-01-11T04:18:58.157Z,1.67
2023-01-11T04:24:00.299Z,1.48
2023-01-11T04:29:02.419Z,1.90
2023-01-11T04:34:04.782Z,1.90
2023-01-11T04:39:10.706Z,3.58
2023-01-11T04:44:12.855Z,1.83
2023-01-11T04:49:15.162Z,1.70
2023-01-11T04:54:17.483Z,2.70
2023-01-11T04:59:19.573Z,1.02
2023-01-11T05:04:21.870Z,1.85
2023-01-11T05:09:24.113Z,1.65
2023-01-11T05:14:26.353Z,0.73
2023-01-11T05:19:28.596Z,1.23
2023-01-11T05:24:30.689Z,1.60
2023-01-11T05:29:32.814Z,2.28
2023-01-11T05:34:35.115Z,1.90
2023-01-11T05:39:37.293Z,0.93
2023-01-11T05:44:58.296Z,3.58
2023-01-11T05:50:00.495Z,2.08
2023-01-11T05:55:02.641Z,2.22
2023-01-11T06:00:05.220Z,1.17
2023-01-11T06:05:09.113Z,1.63
2023-01-11T06:10:11.649Z,1.75
2023-01-11T06:15:13.863Z,1.33
2023-01-11T06:20:16.226Z,1.67
2023-01-11T06:25:18.349Z,1.60
2023-01-11T06:30:20.891Z,1.48
2023-01-11T06:35:23.084Z,1.45
2023-01-11T06:40:25.214Z,0.82
2023-01-11T06:45:27.804Z,1.25
2023-01-11T06:50:29.884Z,1.02
2023-01-11T06:55:32.768Z,0.85
2023-01-11T07:00:34.915Z,0.98
2023-01-11T07:05:37.337Z,0.95
2023-01-11T07:10:39.475Z,1.38
2023-01-11T07:15:41.751Z,1.15
2023-01-11T07:20:43.965Z,2.20
2023-01-11T07:25:46.142Z,1.17
2023-01-11T07:30:58.227Z,3.03
2023-01-11T07:36:01.153Z,0.95
2023-01-11T07:41:23.168Z,0.65
2023-01-11T07:51:27.497Z,1.60
2023-01-11T07:56:30.447Z,1.17
2023-01-11T08:01:32.624Z,2.47
2023-01-11T08:06:34.762Z,1.20
2023-01-11T08:11:55.384Z,0.93
2023-01-11T08:16:57.491Z,0.60
2023-01-11T08:21:59.648Z,1.63
2023-01-11T08:27:02.619Z,0.95
2023-01-11T08:32:06.347Z,0.90
2023-01-11T08:37:08.864Z,0.90
2023-01-11T08:42:11.068Z,1.42
2023-01-11T08:47:13.311Z,1.90
2023-01-11T08:52:15.562Z,0.95
2023-01-11T08:57:17.790Z,1.05
2023-01-11T09:02:19.928Z,1.52
2023-01-11T09:07:22.035Z,1.00
2023-01-11T09:12:24.331Z,1.10
2023-01-11T09:17:26.495Z,1.85
2023-01-11T09:22:28.793Z,2.30
2023-01-11T09:27:30.955Z,1.83
2023-01-11T09:32:33.052Z,0.68
2023-01-11T09:37:39.923Z,0.77
2023-01-11T09:42:43.605Z,0.70
2023-01-11T09:48:15.549Z,0.90
2023-01-11T09:53:32.190Z,1.00
2023-01-11T09:58:42.892Z,1.40
2023-01-11T10:04:00.131Z,0.60
2023-01-11T10:18:26.400Z,0.70
2023-01-11T10:20:47.772Z,1.52
2023-01-11T10:25:55.085Z,1.52
2023-01-11T10:31:11.611Z,1.88
2023-01-11T10:37:10.473Z,0.73
2023-01-11T10:42:21.839Z,1.40
2023-01-11T10:47:28.607Z,2.00
2023-01-11T10:52:32.896Z,0.70
2023-01-11T10:58:00.136Z,1.00
2023-01-11T11:03:24.879Z,1.30
2023-01-11T11:09:14.929Z,1.75
2023-01-11T11:14:27.547Z,3.78
2023-01-11T11:19:32.953Z,0.63
2023-01-11T11:24:43.203Z,0.85
2023-01-11T11:29:51.198Z,0.68
2023-01-11T11:34:54.244Z,1.15
2023-01-11T11:39:56.564Z,1.60
2023-01-11T11:45:26.424Z,2.75
2023-01-11T11:50:44.362Z,1.65
2023-01-11T11:55:47.375Z,1.38
2023-01-11T12:00:51.596Z,1.08
2023-01-11T12:05:58.831Z,2.80
2023-01-11T12:11:07.936Z,1.70
2023-01-11T12:16:23.841Z,1.85
2023-01-11T12:21:29.681Z,1.90
2023-01-11T12:27:18.491Z,1.65
2023-01-11T12:32:30.763Z,2.72
2023-01-11T12:37:53.114Z,2.05
2023-01-11T12:43:23.162Z,1.73
2023-01-11T12:48:49.973Z,3.33
2023-01-11T12:54:03.552Z,3.45
2023-01-11T12:59:34.540Z,2.40
2023-01-11T13:04:48.389Z,1.55
2023-01-11T13:10:08.324Z,2.45
2023-01-11T13:15:46.751Z,4.45
2023-01-11T13:21:03.232Z,1.38
2023-01-11T13:26:18.950Z,2.55
2023-01-11T13:31:22.333Z,5.03
2023-01-11T13:36:30.508Z,2.50
2023-01-11T13:41:41.866Z,2.45
2023-01-11T13:47:16.012Z,3.75
2023-01-11T13:52:21.796Z,1.63
2023-01-11T13:57:34.463Z,4.70
2023-01-11T14:02:52.120Z,5.47
2023-01-11T14:08:03.516Z,3.10
2023-01-11T14:13:39.299Z,2.47
2023-01-11T14:18:54.531Z,4.38
2023-01-11T14:23:57.385Z,4.53
2023-01-11T14:28:59.430Z,2.90
2023-01-11T14:34:31.640Z,4.60
2023-01-11T14:39:42.669Z,3.97
2023-01-11T14:45:16.947Z,3.42
2023-01-11T14:50:33.804Z,4.60
2023-01-11T14:55:46.603Z,2.35
2023-01-11T15:00:48.720Z,4.15
2023-01-11T15:06:23.585Z,3.75
2023-01-11T15:11:38.308Z,4.10
2023-01-11T15:17:10.498Z,3.17
2023-01-11T15:22:26.001Z,3.40
2023-01-11T15:27:36.862Z,3.63
2023-01-11T15:32:38.867Z,3.88
2023-01-11T15:37:53.145Z,5.18
2023-01-11T15:42:55.323Z,4.68
2023-01-11T15:48:12.355Z,2.70
2023-01-11T15:53:32.766Z,4.07
2023-01-11T15:59:12.335Z,5.68
2023-01-11T16:04:31.378Z,4.95
2023-01-11T16:09:36.320Z,3.92
2023-01-11T16:15:22.343Z,4.93
2023-01-11T16:20:28.047Z,4.20
2023-01-11T16:25:33.988Z,3.63
2023-01-11T16:30:36.127Z,5.57
2023-01-11T16:35:38.304Z,6.57
2023-01-11T16:40:43.141Z,3.50
2023-01-11T16:45:50.695Z,4.88
2023-01-11T16:51:14.557Z,3.60
2023-01-11T16:56:20.355Z,3.85
2023-01-11T17:01:22.685Z,7.43
2023-01-11T17:06:26.209Z,3.92
2023-01-11T17:11:50.254Z,5.22
2023-01-11T17:17:00.422Z,8.25
2023-01-11T17:22:06.687Z,6.53
2023-01-11T17:27:19.200Z,3.85
2023-01-11T17:32:43.151Z,4.43
2023-01-11T17:37:47.959Z,5.15
2023-01-11T17:43:09.925Z,4.82
2023-01-11T17:48:14.366Z,4.15
2023-01-11T17:53:22.775Z,2.60
2023-01-11T17:58:27.222Z,5.07
2023-01-11T18:03:29.273Z,5.50
2023-01-11T18:08:31.522Z,2.88
2023-01-11T18:13:35.117Z,5.72
2023-01-11T18:18:47.425Z,3.28
2023-01-11T18:23:49.632Z,3.38
2023-01-11T18:28:51.864Z,2.60
2023-01-11T18:33:54.043Z,3.28
2023-01-11T18:38:56.458Z,3.60
2023-01-11T18:43:58.837Z,5.38
2023-01-11T18:49:00.964Z,6.63
2023-01-11T18:54:03.066Z,5.20
2023-01-11T18:59:05.243Z,3.80
2023-01-11T19:04:07.904Z,2.88
2023-01-11T19:09:10.149Z,7.68
2023-01-11T19:14:12.334Z,3.05
2023-01-11T19:19:14.533Z,4.38
2023-01-11T19:24:16.620Z,4.45
2023-01-11T19:29:19.249Z,3.80
2023-01-11T19:34:22.041Z,2.15
2023-01-11T19:39:24.185Z,5.10
2023-01-11T19:44:30.553Z,3.95
2023-01-11T19:49:32.740Z,4.60
2023-01-11T19:54:34.865Z,4.50
2023-01-11T19:59:36.973Z,3.58
2023-01-11T20:04:40.059Z,4.32
2023-01-11T20:09:42.590Z,5.03
2023-01-11T20:14:46.370Z,2.20
2023-01-11T20:29:58.897Z,4.47
2023-01-11T20:35:01.167Z,2.33
2023-01-11T20:40:03.596Z,5.20
2023-01-11T20:45:06.320Z,6.25
2023-01-11T20:50:08.929Z,6.32
2023-01-11T20:55:11.118Z,6.07
2023-01-11T21:00:13.626Z,6.82
2023-01-11T21:05:16.250Z,7.18
2023-01-11T21:10:18.482Z,6.85
2023-01-11T21:15:20.551Z,8.90
2023-01-11T21:20:22.641Z,6.90
2023-01-11T21:25:24.857Z,7.10
2023-01-11T21:30:26.893Z,9.48
2023-01-11T21:35:29.032Z,6.63
2023-01-11T21:40:32.171Z,8.73
2023-01-11T21:45:34.231Z,9.20
2023-01-11T21:50:36.763Z,11.63
2023-01-11T21:55:38.968Z,11.18
2023-01-11T22:00:41.675Z,16.83
2023-01-11T22:05:43.914Z,11.20
2023-01-11T22:10:59.207Z,12.93
2023-01-11T22:16:06.308Z,13.30
2023-01-11T22:21:10.112Z,14.40
2023-01-11T22:26:15.024Z,9.93
2023-01-11T22:31:17.387Z,11.38
2023-01-11T22:36:20.386Z,12.57
2023-01-11T22:41:23.587Z,9.63
2023-01-11T22:46:27.597Z,13.77
2023-01-11T22:51:29.782Z,18.95
2023-01-11T22:56:32.846Z,12.93
2023-01-11T23:01:37.250Z,13.02
2023-01-11T23:06:41.497Z,14.15
2023-01-11T23:12:02.477Z,15.45
2023-01-11T23:17:08.703Z,16.48
2023-01-11T23:22:10.882Z,18.48
2023-01-11T23:27:12.981Z,19.63
2023-01-11T23:32:15.098Z,16.42
2023-01-11T23:37:17.188Z,23.65
2023-01-11T23:42:28.345Z,18.23
2023-01-11T23:47:31.664Z,16.23
2023-01-11T23:52:33.757Z,17.65
2023-01-11T23:57:35.966Z,21.10
